Time;durP1;ratioP1;P1;durP2;ratioP2;P2;SDS_P1;SDS_P2;PMS_P1;PMS_P2;Temp;Humidity;BMP_temperature;BMP_pressure;BME280_temperature;BME280_humidity;BME280_pressure;Samples;Min_cycle;Max_cycle;Signal;HPM_P1;HPM_P2
2023/01/06 00:02:23;;;;;;;18.23;3.55;;;10.90;99.90;;;;;;4992673;28;20482;-46
2023/01/06 00:04:49;;;;;;;12.90;2.22;;;10.80;99.90;;;;;;4992925;28;20041;-48
2023/01/06 00:07:15;;;;;;;15.35;3.20;;;10.80;99.90;;;;;;4993127;28;20557;-53
2023/01/06 00:09:40;;;;;;;11.38;2.38;;;10.80;99.90;;;;;;4992916;28;20027;-45
2023/01/06 00:12:07;;;;;;;14.10;2.17;;;10.80;99.90;;;;;;4991479;28;20118;-46
2023/01/06 00:14:32;;;;;;;16.65;3.05;;;10.80;99.90;;;;;;4989068;28;20034;-45
2023/01/06 00:16:58;;;;;;;11.65;2.55;;;10.80;99.90;;;;;;4982941;28;20385;-50
2023/01/06 00:19:24;;;;;;;12.82;2.10;;;10.90;99.90;;;;;;4976709;28;20030;-48
2023/01/06 00:21:49;;;;;;;15.27;2.75;;;10.90;99.90;;;;;;4976325;28;20077;-46
2023/01/06 00:24:15;;;;;;;15.80;2.60;;;10.90;99.90;;;;;;4976022;28;20461;-46
2023/01/06 00:26:40;;;;;;;11.48;2.05;;;10.90;99.90;;;;;;4972620;28;20043;-46
2023/01/06 00:29:08;;;;;;;9.63;2.05;;;11.00;99.90;;;;;;4972825;28;20053;-45
2023/01/06 00:31:35;;;;;;;11.95;2.53;;;11.00;99.90;;;;;;4974885;28;20054;-46
2023/01/06 00:34:01;;;;;;;16.00;1.90;;;11.00;99.90;;;;;;4979318;28;20072;-62
2023/01/06 00:36:26;;;;;;;10.18;2.00;;;11.10;99.90;;;;;;4992164;28;20063;-51
2023/01/06 00:38:52;;;;;;;13.00;1.90;;;11.10;99.90;;;;;;4982368;28;20027;-48
2023/01/06 00:44:03;;;;;;;12.05;1.77;;;11.20;99.90;;;;;;4981595;28;20037;-49
2023/01/06 00:46:30;;;;;;;15.98;2.20;;;11.20;99.90;;;;;;4976482;28;20026;-47
2023/01/06 00:49:03;;;;;;;10.82;2.00;;;11.20;99.90;;;;;;4973970;28;20549;-45
2023/01/06 00:51:29;;;;;;;12.57;2.58;;;11.20;99.90;;;;;;4983516;28;20118;-53
2023/01/06 00:53:57;;;;;;;12.02;1.67;;;11.20;99.90;;;;;;4959791;28;20102;-47
2023/01/06 00:56:23;;;;;;;12.40;1.65;;;11.20;99.90;;;;;;4975972;28;20023;-49
2023/01/06 00:58:48;;;;;;;8.27;1.48;;;11.20;99.90;;;;;;4980277;28;20101;-52
2023/01/06 01:01:14;;;;;;;13.80;2.10;;;11.20;99.90;;;;;;4991485;28;20125;-49
2023/01/06 01:03:40;;;;;;;10.43;1.83;;;11.20;99.90;;;;;;4991581;28;20101;-49
2023/01/06 01:06:07;;;;;;;12.50;1.73;;;11.30;99.90;;;;;;4991543;28;20026;-47
2023/01/06 01:08:33;;;;;;;11.20;1.85;;;11.30;99.90;;;;;;4987264;28;20031;-46
2023/01/06 01:11:04;;;;;;;14.00;2.33;;;11.30;99.90;;;;;;4991454;28;20064;-46
2023/01/06 01:13:30;;;;;;;13.00;2.00;;;11.30;99.90;;;;;;4991362;28;20023;-48
2023/01/06 01:15:55;;;;;;;7.70;1.98;;;11.40;99.90;;;;;;4991322;28;20026;-52
2023/01/06 01:18:21;;;;;;;14.82;2.10;;;11.40;99.90;;;;;;4991659;28;20109;-48
2023/01/06 01:20:47;;;;;;;9.65;2.00;;;11.40;99.90;;;;;;4991351;28;20030;-46
2023/01/06 01:23:12;;;;;;;12.70;2.10;;;11.30;99.90;;;;;;4991652;28;20050;-46
2023/01/06 01:25:39;;;;;;;11.80;2.03;;;11.40;99.90;;;;;;4991377;28;20398;-49
2023/01/06 01:28:06;;;;;;;11.65;2.40;;;11.30;99.90;;;;;;4991421;28;20038;-45
2023/01/06 01:30:31;;;;;;;15.85;2.47;;;11.30;99.90;;;;;;4991407;28;20464;-52
2023/01/06 01:32:57;;;;;;;15.05;2.28;;;11.30;99.90;;;;;;4991404;28;20046;-45
2023/01/06 01:35:23;;;;;;;9.65;2.20;;;11.20;99.90;;;;;;4991427;28;20101;-50
2023/01/06 01:37:48;;;;;;;10.95;1.83;;;11.10;99.90;;;;;;4991326;28;20018;-45
2023/01/06 01:40:15;;;;;;;13.25;2.72;;;11.10;99.90;;;;;;4991531;28;20168;-46
2023/01/06 01:42:40;;;;;;;15.50;2.40;;;11.10;99.90;;;;;;4991314;28;20023;-54
2023/01/06 01:45:19;;;;;;;14.95;2.75;;;11.00;99.90;;;;;;4991458;28;20034;-53
2023/01/06 01:48:17;;;;;;;15.20;2.50;;;11.10;99.90;;;;;;4991363;28;20081;-45
2023/01/06 01:50:47;;;;;;;16.52;2.22;;;11.10;99.90;;;;;;4991526;28;20500;-47
2023/01/06 01:53:24;;;;;;;13.68;3.15;;;11.00;99.90;;;;;;4991312;28;20117;-45
2023/01/06 01:55:52;;;;;;;11.68;2.70;;;11.00;99.90;;;;;;4991426;28;20076;-47
2023/01/06 01:58:52;;;;;;;11.10;2.78;;;11.00;99.90;;;;;;4991211;28;20161;-46
2023/01/06 02:01:18;;;;;;;15.27;2.25;;;10.90;99.90;;;;;;4973808;28;20088;-48
2023/01/06 02:03:44;;;;;;;12.55;2.03;;;10.90;99.90;;;;;;4991174;28;20022;-50
2023/01/06 02:06:15;;;;;;;16.10;2.72;;;10.90;99.90;;;;;;4991211;28;20023;-46
2023/01/06 02:09:03;;;;;;;10.60;1.70;;;10.90;99.90;;;;;;4991048;28;20022;-50
2023/01/06 02:11:32;;;;;;;15.38;2.63;;;10.90;99.90;;;;;;4991101;28;20105;-46
2023/01/06 02:14:20;;;;;;;13.73;2.30;;;10.90;99.90;;;;;;4991350;28;20030;-45
2023/01/06 02:16:55;;;;;;;12.43;2.20;;;10.90;99.90;;;;;;4991128;28;20030;-46
2023/01/06 02:19:50;;;;;;;10.65;2.47;;;10.90;99.90;;;;;;4991142;28;20046;-54
2023/01/06 02:22:53;;;;;;;13.02;2.08;;;11.00;99.90;;;;;;4991173;28;20042;-54
2023/01/06 02:25:57;;;;;;;16.35;2.22;;;10.90;99.90;;;;;;4991788;28;20076;-46
2023/01/06 02:28:41;;;;;;;11.82;2.13;;;10.90;99.90;;;;;;4994755;28;20053;-47
2023/01/06 02:31:35;;;;;;;12.32;2.20;;;10.90;99.90;;;;;;4983633;28;20069;-45
2023/01/06 02:34:09;;;;;;;14.73;1.92;;;10.90;99.90;;;;;;4968878;28;20034;-46
2023/01/06 02:37:05;;;;;;;12.02;2.38;;;10.90;99.90;;;;;;4994774;28;20034;-47
2023/01/06 02:39:49;;;;;;;12.05;1.63;;;10.90;99.90;;;;;;4994590;28;20493;-46
2023/01/06 02:42:43;;;;;;;7.75;1.75;;;10.90;99.90;;;;;;4994440;28;20042;-45
2023/01/06 02:45:36;;;;;;;8.60;1.40;;;10.90;99.90;;;;;;4982951;28;20105;-46
2023/01/06 02:48:15;;;;;;;16.98;2.00;;;10.90;99.90;;;;;;4994376;28;20052;-48
2023/01/06 02:51:09;;;;;;;12.57;2.10;;;10.90;99.90;;;;;;4994541;28;20030;-46
2023/01/06 02:53:53;;;;;;;15.57;1.80;;;10.90;99.90;;;;;;4965972;28;20042;-48
2023/01/06 02:56:25;;;;;;;12.20;2.55;;;11.00;99.90;;;;;;4994304;28;20037;-45
2023/01/06 02:58:58;;;;;;;14.55;2.30;;;11.00;99.90;;;;;;4994271;28;20035;-45
2023/01/06 03:01:40;;;;;;;20.25;2.85;;;11.00;99.90;;;;;;4994123;28;20026;-45
2023/01/06 03:04:10;;;;;;;12.48;2.38;;;11.00;99.90;;;;;;4994478;28;20061;-48
2023/01/06 03:06:43;;;;;;;16.55;2.30;;;11.00;99.90;;;;;;4994079;28;20030;-45
2023/01/06 03:09:12;;;;;;;20.73;2.42;;;10.90;99.90;;;;;;4994132;28;20072;-49
2023/01/06 03:11:39;;;;;;;10.03;1.90;;;10.90;99.90;;;;;;4994162;28;20035;-50
2023/01/06 03:14:08;;;;;;;14.10;2.15;;;10.90;99.90;;;;;;4994016;28;20691;-46
2023/01/06 03:16:34;;;;;;;;;;;10.90;99.90;;;;;;4994280;28;20084;-45
2023/01/06 03:19:00;;;;;;;20.30;2.50;;;10.90;99.90;;;;;;4993965;28;20000;-52
2023/01/06 03:21:31;;;;;;;22.77;3.00;;;10.80;99.90;;;;;;4993959;28;20038;-45
2023/01/06 03:23:57;;;;;;;19.27;3.05;;;10.80;99.90;;;;;;4993679;28;20018;-45
2023/01/06 03:26:24;;;;;;;17.85;2.90;;;10.80;99.90;;;;;;4993752;28;20034;-45
2023/01/06 03:28:49;;;;;;;22.10;2.65;;;10.70;99.90;;;;;;4993828;28;20090;-45
2023/01/06 03:31:38;;;;;;;23.45;3.22;;;10.70;99.90;;;;;;4993871;28;20132;-50
2023/01/06 03:34:24;;;;;;;24.95;3.72;;;10.70;99.90;;;;;;4993677;28;20094;-45
2023/01/06 03:37:01;;;;;;;27.80;3.28;;;10.60;99.90;;;;;;4993215;28;20053;-48
2023/01/06 03:39:29;;;;;;;33.42;4.25;;;10.60;99.90;;;;;;4981176;28;20536;-53
2023/01/06 03:44:57;;;;;;;23.10;3.08;;;10.60;99.90;;;;;;4993382;28;20409;-46
2023/01/06 03:47:49;;;;;;;20.50;3.05;;;10.60;99.90;;;;;;4993451;28;20393;-45
2023/01/06 03:50:40;;;;;;;27.75;3.83;;;10.60;99.90;;;;;;4982687;28;20577;-46
2023/01/06 03:53:21;;;;;;;25.75;3.65;;;10.60;99.90;;;;;;4993096;28;20031;-46
2023/01/06 03:56:02;;;;;;;15.13;2.30;;;10.60;99.90;;;;;;4993273;28;20112;-49
2023/01/06 03:58:29;;;;;;;16.73;2.08;;;10.60;99.90;;;;;;4993152;28;20033;-48
2023/01/06 04:00:56;;;;;;;7.82;0.93;;;10.50;99.90;;;;;;4993095;28;20035;-49
2023/01/06 04:03:24;;;;;;;3.35;0.95;;;10.40;99.90;;;;;;4989167;28;20022;-47
2023/01/06 04:05:50;;;;;;;4.55;0.85;;;10.30;99.90;;;;;;4983848;28;20432;-45
2023/01/06 04:08:16;;;;;;;1.55;0.40;;;10.20;99.90;;;;;;4975778;28;20022;-47
2023/01/06 04:10:41;;;;;;;2.03;0.40;;;10.00;99.90;;;;;;4993191;28;20511;-47
2023/01/06 04:13:07;;;;;;;0.50;0.30;;;9.80;99.90;;;;;;4975374;28;20548;-45
2023/01/06 04:15:33;;;;;;;1.35;0.40;;;9.80;99.90;;;;;;4992673;28;20440;-53
2023/01/06 04:17:59;;;;;;;0.30;0.30;;;9.60;99.90;;;;;;4992825;28;20034;-45
2023/01/06 04:20:28;;;;;;;0.30;0.30;;;9.50;99.90;;;;;;4992637;28;20030;-46
2023/01/06 04:22:55;;;;;;;0.80;0.40;;;9.40;99.90;;;;;;4992928;28;20043;-48
2023/01/06 04:25:21;;;;;;;0.30;0.30;;;9.40;99.90;;;;;;4992431;28;20033;-46
2023/01/06 04:27:47;;;;;;;0.88;0.40;;;9.20;99.90;;;;;;4992184;28;20039;-44
2023/01/06 04:30:12;;;;;;;2.50;0.32;;;9.10;99.90;;;;;;4992481;28;20189;-45
2023/01/06 04:32:38;;;;;;;0.77;0.40;;;9.00;99.90;;;;;;4992598;28;20027;-46
2023/01/06 04:35:05;;;;;;;0.43;0.32;;;8.90;99.90;;;;;;4992818;28;20037;-52
2023/01/06 04:37:30;;;;;;;2.55;0.65;;;8.70;99.90;;;;;;4992621;28;20048;-49
2023/01/06 04:39:56;;;;;;;0.80;0.40;;;8.60;99.90;;;;;;4992258;28;20473;-47
2023/01/06 04:42:22;;;;;;;1.50;0.50;;;8.50;99.90;;;;;;4992450;28;20030;-50
2023/01/06 04:44:47;;;;;;;1.17;0.40;;;8.40;99.90;;;;;;4992023;28;20030;-49
2023/01/06 04:47:13;;;;;;;0.82;0.32;;;8.30;99.90;;;;;;4992232;28;20030;-47
2023/01/06 04:49:38;;;;;;;0.30;0.30;;;8.30;99.90;;;;;;4991039;28;20680;-52
2023/01/06 04:52:04;;;;;;;0.43;0.30;;;8.20;99.90;;;;;;4992255;28;20504;-49
2023/01/06 04:54:30;;;;;;;0.80;0.40;;;8.00;99.90;;;;;;5006192;28;20021;-45
2023/01/06 04:56:55;;;;;;;0.40;0.30;;;8.00;99.90;;;;;;5011567;28;20092;-47
2023/01/06 04:59:21;;;;;;;0.43;0.30;;;7.90;99.90;;;;;;5011582;28;20076;-46
2023/01/06 05:01:47;;;;;;;1.35;0.40;;;7.80;99.90;;;;;;5011213;28;20470;-51
2023/01/06 05:04:12;;;;;;;0.38;0.30;;;7.70;99.90;;;;;;5011360;28;20121;-48
2023/01/06 05:06:40;;;;;;;0.57;0.40;;;7.70;99.90;;;;;;5011250;28;20017;-49
2023/01/06 05:09:06;;;;;;;1.55;0.40;;;7.70;99.90;;;;;;5011228;28;20520;-51
2023/01/06 05:11:32;;;;;;;1.20;0.40;;;7.60;99.90;;;;;;5011213;28;20029;-48
2023/01/06 05:13:58;;;;;;;0.98;0.38;;;7.50;99.90;;;;;;5011449;28;20367;-50
2023/01/06 05:16:26;;;;;;;2.25;0.50;;;7.40;99.90;;;;;;5011170;28;20505;-46
2023/01/06 05:18:52;;;;;;;0.30;0.30;;;7.30;99.90;;;;;;5011226;28;20018;-46
2023/01/06 05:21:18;;;;;;;0.85;0.30;;;7.30;99.90;;;;;;5011097;28;20049;-47
2023/01/06 05:23:43;;;;;;;0.52;0.40;;;7.30;99.90;;;;;;5010804;28;20014;-45
2023/01/06 05:26:15;;;;;;;1.80;0.40;;;7.20;99.90;;;;;;5011118;28;20030;-48
2023/01/06 05:28:41;;;;;;;0.85;0.40;;;7.20;99.90;;;;;;5010884;28;20058;-46
2023/01/06 05:31:09;;;;;;;2.47;0.40;;;7.10;99.90;;;;;;5011224;28;20037;-49
2023/01/06 05:33:35;;;;;;;1.63;0.50;;;7.10;99.90;;;;;;5011140;28;20026;-48
2023/01/06 05:36:06;;;;;;;0.35;0.35;;;7.10;99.90;;;;;;5011242;28;20040;-52
2023/01/06 05:38:32;;;;;;;1.80;0.50;;;7.00;99.90;;;;;;5011008;28;20018;-47
2023/01/06 05:40:58;;;;;;;1.35;0.40;;;7.00;99.90;;;;;;5010940;28;20037;-45
2023/01/06 05:43:25;;;;;;;0.60;0.40;;;7.00;99.90;;;;;;5011084;28;20033;-50
2023/01/06 05:45:52;;;;;;;2.20;0.40;;;7.10;99.90;;;;;;5010894;28;20065;-50
2023/01/06 05:48:18;;;;;;;2.25;0.50;;;7.00;99.90;;;;;;5011274;28;20048;-45
2023/01/06 05:50:44;;;;;;;1.27;0.45;;;7.00;99.90;;;;;;5010530;28;20495;-50
2023/01/06 05:53:09;;;;;;;1.17;0.40;;;7.00;99.90;;;;;;4994071;28;20107;-47
2023/01/06 05:55:35;;;;;;;0.38;0.32;;;7.00;99.90;;;;;;4986103;28;20035;-49
2023/01/06 05:58:01;;;;;;;4.38;0.50;;;7.00;99.90;;;;;;4990996;28;20081;-48
2023/01/06 06:00:27;;;;;;;2.10;0.50;;;7.00;99.90;;;;;;4985095;28;20074;-45
2023/01/06 06:02:53;;;;;;;2.17;0.40;;;6.90;99.90;;;;;;5013578;28;20030;-46
2023/01/06 06:05:19;;;;;;;3.10;0.50;;;6.80;99.90;;;;;;5000219;28;20043;-47
2023/01/06 06:07:54;;;;;;;2.08;0.40;;;6.70;99.90;;;;;;4995568;28;20500;-49
2023/01/06 06:10:20;;;;;;;2.08;0.57;;;6.70;99.90;;;;;;4985225;28;20069;-54
2023/01/06 06:12:46;;;;;;;1.60;0.40;;;6.60;99.90;;;;;;4994916;28;20022;-53
2023/01/06 06:15:11;;;;;;;1.25;0.50;;;6.60;99.90;;;;;;4994891;28;20030;-53
2023/01/06 06:17:37;;;;;;;1.50;0.40;;;6.50;99.90;;;;;;4995024;28;20418;-48
2023/01/06 06:20:03;;;;;;;0.90;0.40;;;6.40;99.90;;;;;;4994742;28;20113;-48
2023/01/06 06:22:29;;;;;;;1.02;0.40;;;6.40;99.90;;;;;;4977427;28;20508;-45
2023/01/06 06:24:55;;;;;;;2.13;0.38;;;6.40;99.90;;;;;;4994630;28;20034;-50
2023/01/06 06:27:20;;;;;;;0.57;0.30;;;6.30;99.90;;;;;;4994989;28;20054;-48
2023/01/06 06:29:46;;;;;;;0.80;0.40;;;6.30;99.90;;;;;;4994590;28;20029;-45
2023/01/06 06:32:11;;;;;;;1.65;0.50;;;6.30;99.90;;;;;;4994826;28;20046;-45
2023/01/06 06:34:37;;;;;;;1.00;0.45;;;6.30;99.90;;;;;;4995213;28;20453;-45
2023/01/06 06:37:02;;;;;;;1.50;0.40;;;6.20;99.90;;;;;;4995194;28;20038;-45
2023/01/06 06:39:28;;;;;;;4.95;0.82;;;6.20;99.90;;;;;;4994559;28;20122;-50
2023/01/06 06:41:54;;;;;;;2.10;0.60;;;6.20;99.90;;;;;;4994188;28;20050;-48
2023/01/06 06:44:19;;;;;;;3.53;0.70;;;6.10;99.90;;;;;;4994508;28;20026;-45
2023/01/06 06:46:45;;;;;;;1.75;0.63;;;6.00;99.90;;;;;;4994340;28;20039;-44
2023/01/06 06:49:10;;;;;;;1.42;0.55;;;6.00;99.90;;;;;;4994237;28;20022;-48
2023/01/06 06:51:36;;;;;;;1.13;0.30;;;5.90;99.90;;;;;;4994118;28;20113;-45
2023/01/06 06:54:03;;;;;;;1.42;0.50;;;5.90;99.90;;;;;;4994072;28;20032;-50
2023/01/06 06:56:28;;;;;;;2.55;0.47;;;5.90;99.90;;;;;;4994379;28;20026;-45
2023/01/06 06:58:54;;;;;;;0.95;0.40;;;5.80;99.90;;;;;;4994203;28;20482;-45
2023/01/06 07:01:20;;;;;;;1.35;0.50;;;5.80;99.90;;;;;;4999924;28;20557;-47
2023/01/06 07:03:47;;;;;;;1.23;0.50;;;5.80;99.90;;;;;;5013804;28;20021;-49
2023/01/06 07:06:15;;;;;;;1.20;0.43;;;5.80;99.90;;;;;;5013484;28;20080;-46
2023/01/06 07:08:47;;;;;;;0.65;0.40;;;5.80;99.90;;;;;;5003447;28;20756;-45
2023/01/06 07:11:13;;;;;;;1.48;0.40;;;5.70;99.90;;;;;;5010702;28;20517;-45
2023/01/06 07:13:38;;;;;;;2.58;0.60;;;5.70;99.90;;;;;;5012749;28;20060;-51
2023/01/06 07:16:05;;;;;;;1.10;0.47;;;5.70;99.90;;;;;;5013278;28;20026;-50
2023/01/06 07:18:30;;;;;;;1.10;0.50;;;5.70;99.90;;;;;;5013357;28;20026;-47
2023/01/06 07:20:56;;;;;;;1.30;0.40;;;5.70;99.90;;;;;;5013475;28;20045;-44
2023/01/06 07:23:22;;;;;;;2.17;0.47;;;5.70;99.90;;;;;;5013131;28;20384;-49
2023/01/06 07:25:59;;;;;;;2.25;0.50;;;5.60;99.90;;;;;;5013507;28;20034;-51
2023/01/06 07:28:26;;;;;;;2.35;0.50;;;5.60;99.90;;;;;;5013024;28;20045;-45
2023/01/06 07:30:52;;;;;;;1.90;0.65;;;5.60;99.90;;;;;;5013236;28;20109;-46
2023/01/06 07:33:18;;;;;;;2.38;0.60;;;5.60;99.90;;;;;;5013081;28;20401;-53
2023/01/06 07:35:44;;;;;;;1.73;0.70;;;5.60;99.90;;;;;;5012968;28;20026;-45
2023/01/06 07:38:10;;;;;;;1.73;0.60;;;5.50;99.90;;;;;;5012963;28;20037;-52
2023/01/06 07:40:36;;;;;;;1.90;0.60;;;5.50;99.90;;;;;;5012936;28;20584;-45
2023/01/06 07:43:04;;;;;;;1.35;0.57;;;5.40;99.90;;;;;;5012970;28;20109;-55
2023/01/06 07:45:29;;;;;;;2.38;0.50;;;5.40;99.90;;;;;;5004709;28;20041;-45
2023/01/06 07:47:55;;;;;;;2.95;0.70;;;5.50;99.90;;;;;;4984878;28;20026;-43
2023/01/06 07:50:21;;;;;;;1.73;0.65;;;5.50;99.90;;;;;;4992826;28;20440;-48
2023/01/06 07:52:47;;;;;;;1.10;0.80;;;5.50;99.90;;;;;;4992962;28;20034;-45
2023/01/06 07:55:12;;;;;;;1.40;0.73;;;5.40;99.90;;;;;;4975073;28;20030;-49
2023/01/06 07:57:38;;;;;;;1.70;0.75;;;5.30;99.90;;;;;;4993046;28;20037;-46
2023/01/06 08:00:04;;;;;;;1.92;0.90;;;5.30;99.90;;;;;;4974976;28;20508;-44
2023/01/06 08:02:30;;;;;;;6.43;1.17;;;5.20;99.90;;;;;;5007514;28;20026;-49
2023/01/06 08:04:55;;;;;;;5.47;1.88;;;5.30;99.90;;;;;;5012424;28;20022;-45
2023/01/06 08:07:21;;;;;;;7.60;2.30;;;5.30;99.90;;;;;;5012299;28;20385;-45
2023/01/06 08:09:46;;;;;;;2.78;1.58;;;5.30;99.90;;;;;;5012519;28;20042;-47
2023/01/06 08:12:12;;;;;;;4.82;2.28;;;5.30;99.90;;;;;;5011284;28;20577;-47
2023/01/06 08:14:38;;;;;;;3.65;1.83;;;5.40;99.90;;;;;;5012278;28;20097;-51
2023/01/06 08:17:03;;;;;;;2.83;1.65;;;5.40;99.90;;;;;;5012385;28;20181;-45
2023/01/06 08:19:29;;;;;;;4.40;2.33;;;5.50;99.90;;;;;;5011859;28;20030;-45
2023/01/06 08:21:54;;;;;;;4.53;2.30;;;5.60;99.90;;;;;;5012143;28;20037;-45
2023/01/06 08:24:20;;;;;;;4.60;2.17;;;5.70;99.90;;;;;;4994477;28;20065;-46
2023/01/06 08:26:46;;;;;;;4.65;2.28;;;5.70;99.90;;;;;;5011381;28;20485;-49
2023/01/06 08:29:11;;;;;;;5.57;2.38;;;5.80;99.90;;;;;;5012056;28;20081;-50
2023/01/06 08:31:37;;;;;;;4.88;1.85;;;5.90;99.90;;;;;;4992158;28;20022;-50
2023/01/06 08:34:02;;;;;;;6.57;2.08;;;5.90;99.90;;;;;;4993325;28;20100;-49
2023/01/06 08:36:29;;;;;;;4.97;2.65;;;6.10;99.90;;;;;;4992265;28;20081;-47
2023/01/06 08:38:54;;;;;;;5.25;2.92;;;6.10;99.90;;;;;;4992275;28;20025;-52
2023/01/06 08:41:20;;;;;;;7.40;3.42;;;6.30;99.90;;;;;;4992202;28;20046;-50
2023/01/06 08:43:46;;;;;;;9.00;2.83;;;6.70;99.90;;;;;;4991441;28;20018;-48
2023/01/06 08:46:15;;;;;;;4.82;2.50;;;7.70;99.90;;;;;;4991434;28;20030;-51
2023/01/06 08:48:41;;;;;;;4.47;1.90;;;8.90;99.90;;;;;;4991743;28;20190;-49
2023/01/06 08:51:15;;;;;;;11.55;2.15;;;10.30;99.90;;;;;;4991545;28;20113;-49
2023/01/06 08:53:42;;;;;;;2.60;1.30;;;11.60;99.90;;;;;;4991505;28;20081;-47
2023/01/06 08:56:14;;;;;;;2.75;1.40;;;12.80;99.90;;;;;;4974144;28;20023;-43
2023/01/06 08:58:40;;;;;;;4.95;1.30;;;13.70;99.90;;;;;;4991609;28;20113;-51
2023/01/06 09:01:13;;;;;;;1.20;0.73;;;14.30;99.90;;;;;;4990213;28;20030;-48
2023/01/06 09:03:39;;;;;;;2.25;0.90;;;14.80;99.90;;;;;;4982200;28;20072;-45
2023/01/06 09:06:05;;;;;;;2.42;0.90;;;15.10;99.90;;;;;;4991063;28;20105;-46
2023/01/06 09:08:30;;;;;;;4.28;1.02;;;14.90;99.90;;;;;;4990746;28;20513;-48
2023/01/06 09:10:56;;;;;;;4.82;1.08;;;14.00;99.90;;;;;;4991098;28;20107;-46
2023/01/06 09:13:21;;;;;;;3.40;1.27;;;12.80;99.90;;;;;;4984223;28;20026;-47
2023/01/06 09:15:47;;;;;;;3.22;1.10;;;11.80;99.90;;;;;;4991226;28;20033;-45
2023/01/06 09:18:13;;;;;;;2.20;1.10;;;11.00;99.90;;;;;;4990958;28;20532;-44
2023/01/06 09:20:39;;;;;;;3.50;0.95;;;10.40;99.90;;;;;;4991248;28;20037;-45
2023/01/06 09:23:04;;;;;;;2.97;1.30;;;10.00;99.90;;;;;;4991282;28;20054;-46
2023/01/06 09:25:30;;;;;;;4.63;1.10;;;9.60;99.90;;;;;;4986942;28;20456;-46
2023/01/06 09:27:57;;;;;;;3.00;1.30;;;9.40;99.90;;;;;;4973826;28;20065;-49
2023/01/06 09:30:24;;;;;;;3.30;1.02;;;9.20;99.90;;;;;;4991012;28;20029;-50
2023/01/06 09:32:49;;;;;;;3.33;1.10;;;9.10;99.90;;;;;;4984808;28;20022;-44
2023/01/06 09:35:15;;;;;;;4.28;0.82;;;9.10;99.90;;;;;;4985912;28;20035;-44
2023/01/06 09:37:41;;;;;;;5.50;1.33;;;9.10;99.90;;;;;;4987340;28;20030;-46
2023/01/06 09:40:08;;;;;;;4.18;1.10;;;9.00;99.90;;;;;;4993952;28;20036;-45
2023/01/06 09:42:50;;;;;;;4.95;1.10;;;9.00;99.90;;;;;;4993105;28;20019;-47
2023/01/06 09:45:19;;;;;;;6.60;1.15;;;9.00;99.90;;;;;;4992101;28;20037;-49
2023/01/06 09:47:56;;;;;;;7.43;1.92;;;9.00;99.90;;;;;;4991032;28;20466;-50
2023/01/06 09:50:32;;;;;;;5.53;1.77;;;9.10;99.90;;;;;;4988586;28;20070;-52
2023/01/06 09:53:18;;;;;;;6.28;1.08;;;9.10;99.90;;;;;;4990067;28;20034;-47
2023/01/06 09:56:06;;;;;;;7.18;1.38;;;9.20;99.90;;;;;;4990863;28;20034;-50
2023/01/06 09:58:53;;;;;;;4.25;0.90;;;9.30;99.90;;;;;;4994612;28;20030;-45
2023/01/06 10:01:27;;;;;;;7.40;1.38;;;9.30;99.90;;;;;;4994840;28;20073;-44
2023/01/06 10:03:55;;;;;;;8.43;1.23;;;9.40;99.90;;;;;;5003837;28;20060;-46
2023/01/06 10:06:47;;;;;;;7.68;1.63;;;9.50;99.90;;;;;;5005424;28;20030;-51
2023/01/06 10:09:31;;;;;;;6.65;1.08;;;9.60;99.90;;;;;;5005272;28;20037;-51
2023/01/06 10:12:18;;;;;;;6.35;1.00;;;9.80;99.90;;;;;;5010641;28;20026;-46
2023/01/06 10:15:02;;;;;;;3.13;0.82;;;10.00;99.90;;;;;;5010360;28;20018;-47
2023/01/06 10:17:47;;;;;;;4.55;1.10;;;10.90;99.90;;;;;;5010703;28;20054;-48
2023/01/06 10:20:43;;;;;;;4.30;0.90;;;12.40;99.90;;;;;;4978618;28;20031;-48
2023/01/06 10:23:27;;;;;;;6.28;0.98;;;14.60;99.90;;;;;;5008059;28;20684;-46
2023/01/06 10:25:54;;;;;;;5.82;1.10;;;16.10;99.90;;;;;;5010534;28;20032;-46
2023/01/06 10:28:34;;;;;;;6.47;1.15;;;17.50;99.90;;;;;;5000780;28;20054;-47
2023/01/06 10:31:05;;;;;;;4.88;0.95;;;17.70;97.30;;;;;;4990095;28;20050;-50
2023/01/06 10:33:36;;;;;;;4.30;0.93;;;16.50;97.30;;;;;;4984402;28;20042;-47
2023/01/06 10:36:02;;;;;;;6.30;1.00;;;15.00;99.60;;;;;;4990382;28;20062;-47
2023/01/06 10:38:39;;;;;;;8.77;1.00;;;13.70;99.90;;;;;;4988287;28;20026;-45
2023/01/06 10:41:17;;;;;;;5.93;0.98;;;12.80;99.90;;;;;;4990585;28;20041;-45
2023/01/06 10:43:42;;;;;;;9.13;1.60;;;12.40;99.90;;;;;;4990821;28;20018;-49
2023/01/06 10:46:08;;;;;;;6.30;0.88;;;12.70;99.90;;;;;;4991330;28;20516;-45
2023/01/06 10:48:34;;;;;;;6.75;0.95;;;14.00;99.90;;;;;;4993635;28;20031;-55
2023/01/06 10:51:25;;;;;;;5.22;1.23;;;15.70;99.90;;;;;;4985911;28;20030;-48
2023/01/06 10:53:50;;;;;;;7.75;1.65;;;15.90;99.40;;;;;;4992584;28;20076;-49
2023/01/06 10:56:16;;;;;;;9.10;1.52;;;15.00;99.90;;;;;;4989219;28;20432;-53
2023/01/06 10:58:56;;;;;;;5.55;1.17;;;14.90;99.90;;;;;;4991239;28;20033;-48
2023/01/06 11:01:27;;;;;;;3.45;0.88;;;15.80;99.90;;;;;;4985317;28;20026;-45
2023/01/06 11:04:14;;;;;;;6.90;1.08;;;17.60;98.10;;;;;;4989574;28;20478;-50
2023/01/06 11:06:52;;;;;;;4.75;1.08;;;18.60;95.90;;;;;;4980531;28;20023;-49
2023/01/06 11:09:32;;;;;;;5.80;1.25;;;19.70;93.30;;;;;;4988165;28;20536;-46
2023/01/06 11:12:01;;;;;;;5.95;1.10;;;20.30;90.60;;;;;;4987797;28;20038;-47
2023/01/06 11:14:31;;;;;;;2.78;0.82;;;20.10;89.10;;;;;;4984915;28;20129;-45
2023/01/06 11:17:02;;;;;;;5.47;0.90;;;19.80;87.50;;;;;;4978498;28;20046;-49
2023/01/06 11:19:42;;;;;;;3.40;0.82;;;19.80;88.30;;;;;;4980330;28;20510;-47
2023/01/06 11:22:43;;;;;;;3.08;0.70;;;20.00;87.30;;;;;;4996249;28;20050;-48
2023/01/06 11:25:29;;;;;;;5.47;1.15;;;19.70;88.20;;;;;;4951563;28;20191;-49
2023/01/06 11:28:15;;;;;;;6.38;1.10;;;19.50;86.90;;;;;;4990909;28;20053;-52
2023/01/06 11:31:03;;;;;;;6.60;1.15;;;18.40;89.10;;;;;;5003983;28;20057;-54
2023/01/06 11:33:31;;;;;;;9.43;1.70;;;17.20;90.50;;;;;;4997176;28;20042;-47
2023/01/06 11:36:04;;;;;;;5.35;1.30;;;16.20;92.20;;;;;;4994369;28;20360;-52
2023/01/06 11:38:30;;;;;;;7.57;0.90;;;15.40;93.50;;;;;;5004720;28;20037;-45
2023/01/06 11:40:56;;;;;;;6.32;1.05;;;14.90;94.50;;;;;;5002803;28;20038;-48
2023/01/06 11:43:30;;;;;;;5.07;1.50;;;14.50;95.70;;;;;;4990759;28;20063;-49
2023/01/06 11:45:59;;;;;;;5.85;0.90;;;14.20;96.00;;;;;;4990795;28;20123;-46
2023/01/06 11:48:33;;;;;;;4.70;0.70;;;13.70;97.40;;;;;;4987711;28;20038;-45
2023/01/06 11:51:04;;;;;;;8.45;1.42;;;13.50;98.90;;;;;;4991590;28;20026;-50
2023/01/06 11:53:32;;;;;;;9.18;1.27;;;13.20;99.10;;;;;;4994173;28;20393;-46
2023/01/06 11:56:06;;;;;;;5.18;1.00;;;13.10;99.80;;;;;;4988423;28;20512;-45
2023/01/06 11:58:57;;;;;;;5.00;1.15;;;13.20;99.90;;;;;;4984466;28;20019;-44
2023/01/06 12:01:46;;;;;;;8.30;1.50;;;14.20;99.40;;;;;;4996493;28;20038;-55
2023/01/06 12:04:24;;;;;;;3.60;1.02;;;15.80;96.80;;;;;;5004451;28;20060;-44
2023/01/06 12:06:55;;;;;;;7.95;1.35;;;16.10;94.70;;;;;;5006976;28;20053;-47
2023/01/06 12:09:31;;;;;;;7.75;1.25;;;15.90;94.60;;;;;;5004263;28;20036;-49
2023/01/06 12:12:04;;;;;;;5.22;1.67;;;16.40;95.90;;;;;;5001487;28;20072;-47
2023/01/06 12:14:38;;;;;;;8.48;1.30;;;17.40;93.30;;;;;;4988467;28;20022;-49
2023/01/06 12:17:18;;;;;;;7.28;1.27;;;17.90;91.40;;;;;;4990589;28;20042;-43
2023/01/06 12:20:20;;;;;;;7.00;0.95;;;17.40;92.00;;;;;;4997565;28;20106;-46
2023/01/06 12:22:57;;;;;;;7.78;1.13;;;15.90;93.50;;;;;;4986118;28;20038;-42
2023/01/06 12:25:32;;;;;;;5.15;0.82;;;15.30;95.80;;;;;;4990707;28;20401;-45
2023/01/06 12:28:17;;;;;;;4.93;0.88;;;15.80;95.50;;;;;;4990376;28;20054;-42
2023/01/06 12:30:54;;;;;;;7.60;1.10;;;15.80;95.40;;;;;;4991545;28;20109;-46
2023/01/06 12:33:28;;;;;;;6.28;0.98;;;15.80;94.90;;;;;;4986955;28;20026;-41
2023/01/06 12:35:58;;;;;;;4.32;0.75;;;15.70;96.40;;;;;;4990008;28;20492;-43
2023/01/06 12:38:47;;;;;;;6.10;0.90;;;15.90;95.40;;;;;;4991931;28;20050;-44
2023/01/06 12:41:19;;;;;;;4.78;0.88;;;15.60;95.00;;;;;;4991446;28;20046;-46
2023/01/06 12:43:57;;;;;;;7.18;1.20;;;14.60;97.20;;;;;;4991934;28;20033;-48
2023/01/06 12:46:31;;;;;;;5.38;1.05;;;13.80;98.20;;;;;;4986840;28;20073;-46
2023/01/06 12:49:04;;;;;;;6.25;0.82;;;13.20;99.90;;;;;;4991998;28;20025;-47
2023/01/06 12:51:43;;;;;;;7.13;0.70;;;12.90;99.90;;;;;;4984377;28;20031;-52
2023/01/06 12:54:13;;;;;;;;;;;12.70;99.90;;;;;;4991570;28;20113;-53
2023/01/06 12:57:00;;;;;;;5.47;0.68;;;12.50;99.90;;;;;;4991336;28;20000;-48
2023/01/06 12:59:29;;;;;;;4.57;0.90;;;12.50;99.90;;;;;;4990597;28;20034;-48
2023/01/06 13:02:20;;;;;;;5.23;0.90;;;12.40;99.90;;;;;;4998189;28;20528;-50
2023/01/06 13:05:00;;;;;;;9.00;1.00;;;12.40;99.90;;;;;;4985693;28;20042;-46
2023/01/06 13:07:40;;;;;;;7.63;0.93;;;12.30;99.90;;;;;;4995012;28;20853;-47
2023/01/06 13:10:16;;;;;;;8.85;1.05;;;12.20;99.90;;;;;;4989508;28;20156;-50
2023/01/06 13:13:14;;;;;;;9.05;1.90;;;12.10;99.90;;;;;;4989311;28;20041;-49
2023/01/06 13:15:43;;;;;;;5.85;1.05;;;12.00;99.90;;;;;;4955252;28;20533;-47